createdAt,value
2018-12-12T00:02:00.148Z,5.42
2018-12-12T00:04:32.766Z,5.65
2018-12-12T00:07:03.455Z,6.33
2018-12-12T00:09:35.480Z,5.05
2018-12-12T00:12:06.386Z,4.90
2018-12-12T00:14:37.443Z,6.17
2018-12-12T00:17:08.254Z,4.55
2018-12-12T00:19:39.023Z,5.22
2018-12-12T00:22:09.869Z,5.55
2018-12-12T00:24:40.685Z,7.00
2018-12-12T00:27:11.355Z,6.08
2018-12-12T00:29:41.919Z,7.80
2018-12-12T00:32:12.925Z,5.08
2018-12-12T00:34:43.517Z,4.17
2018-12-12T00:37:14.330Z,5.83
2018-12-12T00:39:44.961Z,4.40
2018-12-12T00:42:15.903Z,5.28
2018-12-12T00:44:46.931Z,5.25
2018-12-12T00:47:18.032Z,5.03
2018-12-12T00:49:48.993Z,5.40
2018-12-12T00:52:19.576Z,9.68
2018-12-12T00:54:50.605Z,4.72
2018-12-12T00:57:22.405Z,6.35
2018-12-12T00:59:53.015Z,5.20
2018-12-12T01:02:23.599Z,4.65
2018-12-12T01:04:54.438Z,4.55
2018-12-12T01:07:25.211Z,3.30
2018-12-12T01:09:55.823Z,4.10
2018-12-12T01:12:26.467Z,3.62
2018-12-12T01:14:57.397Z,2.77
2018-12-12T01:17:28.375Z,4.90
2018-12-12T01:19:59.615Z,5.25
2018-12-12T01:22:30.595Z,6.20
2018-12-12T01:25:01.495Z,6.10
2018-12-12T01:27:32.709Z,3.75
2018-12-12T01:30:03.646Z,4.97
2018-12-12T01:32:34.803Z,5.12
2018-12-12T01:35:06.552Z,5.28
2018-12-12T01:37:37.369Z,4.67
2018-12-12T01:40:09.383Z,3.60
2018-12-12T01:42:40.219Z,5.05
2018-12-12T01:45:11.127Z,3.92
2018-12-12T01:47:41.965Z,4.17
2018-12-12T01:50:12.864Z,5.62
2018-12-12T01:52:43.661Z,4.83
2018-12-12T01:55:15.096Z,5.08
2018-12-12T01:57:45.899Z,4.37
2018-12-12T02:00:16.737Z,4.37
2018-12-12T02:02:47.515Z,3.92
2018-12-12T02:05:18.113Z,5.45
2018-12-12T02:07:49.369Z,6.97
2018-12-12T02:10:20.735Z,6.42
2018-12-12T02:13:01.924Z,8.98
2018-12-12T02:15:32.962Z,6.17
2018-12-12T02:18:03.949Z,7.80
2018-12-12T02:20:35.139Z,8.30
2018-12-12T02:23:05.957Z,7.00
2018-12-12T02:25:36.914Z,6.40
2018-12-12T02:28:07.649Z,4.80
2018-12-12T02:30:38.410Z,6.17
2018-12-12T02:33:09.014Z,8.08
2018-12-12T02:35:39.917Z,8.53
2018-12-12T02:38:10.634Z,8.90
2018-12-12T02:40:41.419Z,8.43
2018-12-12T02:43:12.200Z,8.03
2018-12-12T02:45:43.084Z,10.40
2018-12-12T02:48:15.776Z,8.90
2018-12-12T02:50:46.714Z,9.93
2018-12-12T02:53:17.575Z,8.63
2018-12-12T02:55:48.491Z,9.73
2018-12-12T02:58:19.351Z,7.50
2018-12-12T03:00:50.186Z,9.98
2018-12-12T03:03:20.995Z,10.43
2018-12-12T03:05:51.847Z,6.55
2018-12-12T03:08:22.600Z,6.35
2018-12-12T03:10:53.529Z,10.15
2018-12-12T03:13:24.446Z,6.50
2018-12-12T03:15:55.475Z,8.88
2018-12-12T03:18:26.447Z,6.80
2018-12-12T03:20:57.304Z,11.00
2018-12-12T03:23:28.066Z,5.95
2018-12-12T03:25:58.993Z,9.68
2018-12-12T03:28:29.919Z,9.45
2018-12-12T03:31:00.459Z,6.35
2018-12-12T03:33:31.310Z,7.15
2018-12-12T03:36:02.197Z,11.08
2018-12-12T03:38:32.736Z,9.70
2018-12-12T03:41:04.557Z,6.85
2018-12-12T03:43:35.395Z,8.80
2018-12-12T03:46:06.915Z,11.48
2018-12-12T03:48:37.824Z,13.35
2018-12-12T03:51:08.827Z,10.45
2018-12-12T03:53:39.589Z,9.08
2018-12-12T03:56:10.191Z,12.53
2018-12-12T03:58:40.767Z,10.55
2018-12-12T04:01:12.539Z,10.82
2018-12-12T04:03:43.602Z,10.58
2018-12-12T04:06:14.683Z,7.85
2018-12-12T04:08:45.590Z,7.08
2018-12-12T04:11:16.777Z,8.80
2018-12-12T04:13:47.527Z,9.50
2018-12-12T04:16:18.728Z,8.20
2018-12-12T04:18:50.039Z,8.13
2018-12-12T04:21:22.617Z,7.92
2018-12-12T04:23:53.440Z,8.30
2018-12-12T04:26:24.379Z,8.63
2018-12-12T04:28:54.986Z,9.25
2018-12-12T04:31:26.030Z,10.15
2018-12-12T04:33:56.828Z,9.30
2018-12-12T04:36:27.946Z,8.05
2018-12-12T04:38:58.842Z,8.00
2018-12-12T04:41:29.999Z,7.78
2018-12-12T04:44:00.966Z,8.60
2018-12-12T04:46:31.933Z,8.35
2018-12-12T04:49:02.566Z,9.13
2018-12-12T04:51:33.392Z,11.63
2018-12-12T04:54:04.179Z,15.15
2018-12-12T04:56:36.184Z,13.08
2018-12-12T04:59:07.409Z,13.10
2018-12-12T05:01:38.417Z,10.45
2018-12-12T05:04:09.343Z,10.93
2018-12-12T05:06:40.366Z,7.37
2018-12-12T05:09:11.384Z,9.00
2018-12-12T05:11:42.177Z,7.10
2018-12-12T05:14:12.911Z,8.88
2018-12-12T05:16:43.809Z,5.85
2018-12-12T05:19:14.720Z,8.43
2018-12-12T05:21:45.377Z,6.53
2018-12-12T05:24:16.130Z,5.47
2018-12-12T05:26:47.309Z,7.40
2018-12-12T05:29:17.974Z,6.28
2018-12-12T05:31:48.792Z,7.22
2018-12-12T05:34:19.367Z,6.75
2018-12-12T05:36:53.935Z,5.58
2018-12-12T05:39:24.814Z,6.40
2018-12-12T05:41:55.591Z,6.28
2018-12-12T05:44:26.302Z,7.00
2018-12-12T05:46:56.859Z,6.30
2018-12-12T05:49:27.584Z,5.85
2018-12-12T05:51:58.395Z,6.50
2018-12-12T05:54:28.914Z,7.33
2018-12-12T05:56:59.852Z,5.80
2018-12-12T05:59:30.582Z,5.47
2018-12-12T06:02:01.130Z,5.10
2018-12-12T06:04:31.737Z,4.85
2018-12-12T06:07:02.529Z,6.30
2018-12-12T06:09:33.131Z,6.42
2018-12-12T06:12:03.777Z,5.53
2018-12-12T06:14:34.354Z,6.30
2018-12-12T06:17:05.088Z,16.07
2018-12-12T06:19:35.858Z,7.28
2018-12-12T06:22:07.447Z,7.53
2018-12-12T06:24:38.254Z,5.83
2018-12-12T06:27:09.303Z,6.80
2018-12-12T06:29:39.997Z,5.53
2018-12-12T06:32:10.866Z,6.40
2018-12-12T06:34:41.602Z,8.93
2018-12-12T06:37:12.347Z,6.28
2018-12-12T06:39:42.876Z,7.25
2018-12-12T06:42:13.783Z,10.63
2018-12-12T06:44:44.586Z,9.33
2018-12-12T06:47:15.432Z,11.22
2018-12-12T06:49:46.536Z,9.88
2018-12-12T06:52:17.456Z,10.82
2018-12-12T06:54:48.207Z,7.35
2018-12-12T06:57:19.007Z,6.58
2018-12-12T06:59:49.840Z,8.88
2018-12-12T07:02:20.654Z,7.45
2018-12-12T07:04:51.507Z,8.50
2018-12-12T07:07:22.638Z,8.68
2018-12-12T07:09:53.098Z,7.97
2018-12-12T07:12:24.447Z,5.58
2018-12-12T07:14:54.973Z,7.90
2018-12-12T07:17:25.561Z,5.85
2018-12-12T07:19:56.451Z,7.28
2018-12-12T07:22:27.030Z,11.40
2018-12-12T07:24:57.949Z,10.85
2018-12-12T07:27:28.947Z,7.80
2018-12-12T07:29:59.769Z,7.40
2018-12-12T07:32:30.869Z,10.60
2018-12-12T07:35:01.941Z,9.83
2018-12-12T07:37:32.889Z,16.80
2018-12-12T07:40:03.650Z,14.83
2018-12-12T07:42:34.429Z,11.65
2018-12-12T07:45:10.599Z,11.73
2018-12-12T07:47:43.201Z,17.90
2018-12-12T07:50:31.400Z,13.45
2018-12-12T07:53:07.666Z,15.85
2018-12-12T07:55:38.532Z,13.70
2018-12-12T07:58:09.593Z,14.38
2018-12-12T08:00:40.312Z,9.43
2018-12-12T08:03:11.229Z,10.45
2018-12-12T08:05:43.321Z,8.68
2018-12-12T08:08:14.214Z,8.18
2018-12-12T08:10:45.017Z,9.43
2018-12-12T08:13:15.972Z,18.60
2018-12-12T08:15:46.952Z,9.10
2018-12-12T08:18:17.624Z,8.53
2018-12-12T08:20:48.738Z,6.17
2018-12-12T08:23:20.097Z,6.53
2018-12-12T08:25:50.809Z,6.22
2018-12-12T08:28:21.537Z,9.20
2018-12-12T08:30:52.076Z,6.40
2018-12-12T08:33:22.967Z,6.53
2018-12-12T08:35:53.836Z,6.95
2018-12-12T08:38:24.698Z,6.70
2018-12-12T08:40:55.621Z,6.72
2018-12-12T08:43:26.767Z,5.10
2018-12-12T08:45:57.321Z,5.83
2018-12-12T08:48:28.143Z,7.33
2018-12-12T08:50:59.214Z,6.55
2018-12-12T08:53:30.092Z,6.17
2018-12-12T08:56:00.757Z,5.70
2018-12-12T08:58:38.735Z,7.67
2018-12-12T09:01:09.667Z,7.55
2018-12-12T09:03:40.738Z,5.40
2018-12-12T09:06:11.300Z,4.83
2018-12-12T09:08:42.097Z,6.30
2018-12-12T09:11:13.264Z,4.28
2018-12-12T09:13:44.625Z,5.20
2018-12-12T09:16:15.736Z,8.88
2018-12-12T09:18:46.890Z,4.42
2018-12-12T09:21:18.004Z,4.65
2018-12-12T09:23:49.022Z,5.85
2018-12-12T09:26:20.092Z,4.53
2018-12-12T09:28:51.151Z,4.10
2018-12-12T09:31:23.923Z,3.65
2018-12-12T09:33:56.760Z,3.37
2018-12-12T09:36:27.641Z,3.50
2018-12-12T09:38:58.566Z,7.55
2018-12-12T09:41:29.543Z,4.30
2018-12-12T09:44:00.492Z,6.67
2018-12-12T09:46:30.992Z,4.25
2018-12-12T09:49:01.816Z,4.80
2018-12-12T09:51:34.356Z,3.60
2018-12-12T09:54:07.096Z,5.22
2018-12-12T09:56:38.104Z,3.33
2018-12-12T09:59:09.301Z,2.60
2018-12-12T10:01:40.171Z,2.95
2018-12-12T10:04:11.360Z,18.62
2018-12-12T10:06:42.107Z,12.43
2018-12-12T10:09:13.093Z,4.15
2018-12-12T10:11:43.997Z,3.98
2018-12-12T10:14:14.583Z,4.08
2018-12-12T10:16:45.663Z,4.33
2018-12-12T10:19:16.921Z,4.17
2018-12-12T10:21:48.141Z,5.30
2018-12-12T10:24:20.250Z,4.17
2018-12-12T10:26:51.219Z,3.70
2018-12-12T10:29:22.064Z,4.85
2018-12-12T10:31:52.690Z,3.58
2018-12-12T10:34:24.090Z,4.10
2018-12-12T10:36:55.078Z,7.17
2018-12-12T10:39:25.765Z,3.05
2018-12-12T10:41:56.740Z,4.25
2018-12-12T10:44:27.642Z,4.58
2018-12-12T10:46:58.167Z,3.35
2018-12-12T10:49:29.186Z,3.40
2018-12-12T10:51:59.851Z,3.05
2018-12-12T10:54:30.297Z,2.15
2018-12-12T10:57:01.234Z,3.15
2018-12-12T10:59:31.989Z,4.50
2018-12-12T11:02:07.748Z,4.70
2018-12-12T11:04:38.666Z,5.03
2018-12-12T11:07:09.329Z,5.25
2018-12-12T11:09:40.772Z,3.45
2018-12-12T11:12:11.786Z,6.30
2018-12-12T11:14:42.533Z,4.00
2018-12-12T11:17:13.173Z,4.50
2018-12-12T11:19:44.036Z,3.35
2018-12-12T11:22:14.966Z,6.28
2018-12-12T11:24:46.161Z,7.28
2018-12-12T11:27:17.000Z,4.03
2018-12-12T11:29:48.161Z,2.92
2018-12-12T11:32:19.102Z,2.85
2018-12-12T11:34:49.896Z,3.47
2018-12-12T11:37:20.427Z,5.80
2018-12-12T11:39:51.039Z,7.03
2018-12-12T11:42:21.824Z,2.55
2018-12-12T11:44:52.344Z,3.55
2018-12-12T11:47:23.034Z,4.87
2018-12-12T11:49:53.966Z,2.87
2018-12-12T11:52:25.553Z,5.55
2018-12-12T11:54:56.235Z,3.72
2018-12-12T11:57:27.842Z,4.47
2018-12-12T12:00:05.222Z,4.60
2018-12-12T12:02:35.906Z,2.45
2018-12-12T12:05:07.242Z,2.85
2018-12-12T12:07:38.127Z,2.75
2018-12-12T12:10:11.126Z,5.08
2018-12-12T12:12:41.962Z,3.10
2018-12-12T12:15:13.008Z,3.08
2018-12-12T12:17:43.691Z,4.15
2018-12-12T12:20:14.735Z,3.75
2018-12-12T12:22:45.471Z,5.30
2018-12-12T12:25:16.341Z,4.47
2018-12-12T12:27:47.229Z,5.60
2018-12-12T12:30:18.020Z,6.00
2018-12-12T12:32:48.696Z,14.45
2018-12-12T12:35:19.490Z,9.73
2018-12-12T12:37:50.352Z,10.70
2018-12-12T12:40:21.115Z,6.60
2018-12-12T12:42:51.940Z,6.65
2018-12-12T12:45:22.798Z,4.15
2018-12-12T12:47:53.598Z,6.55
2018-12-12T12:50:24.768Z,3.10
2018-12-12T12:52:55.576Z,3.37
2018-12-12T12:55:26.600Z,4.20
2018-12-12T12:57:57.528Z,6.35
2018-12-12T13:00:28.695Z,4.00
2018-12-12T13:02:59.643Z,6.37
2018-12-12T13:05:30.606Z,7.42
2018-12-12T13:08:01.280Z,6.70
2018-12-12T13:10:32.284Z,8.10
2018-12-12T13:13:03.678Z,7.10
2018-12-12T13:15:35.289Z,5.85
2018-12-12T13:18:06.830Z,8.10
2018-12-12T13:20:37.661Z,7.67
2018-12-12T13:23:08.241Z,6.53
2018-12-12T13:25:38.875Z,9.48
2018-12-12T13:28:09.432Z,8.35
2018-12-12T13:30:40.651Z,10.53
2018-12-12T13:33:11.775Z,10.82
2018-12-12T13:35:43.095Z,12.10
2018-12-12T13:38:13.936Z,10.63
2018-12-12T13:40:44.844Z,9.50
2018-12-12T13:43:15.382Z,9.13
2018-12-12T13:45:47.047Z,9.48
2018-12-12T13:48:17.547Z,8.55
2018-12-12T13:50:48.175Z,8.65
2018-12-12T13:53:18.662Z,9.13
2018-12-12T13:55:49.494Z,12.98
2018-12-12T13:58:20.421Z,10.95
2018-12-12T14:00:51.124Z,10.85
2018-12-12T14:03:21.799Z,9.23
2018-12-12T14:05:52.321Z,11.93
2018-12-12T14:08:22.878Z,10.08
2018-12-12T14:10:53.543Z,8.20
2018-12-12T14:13:24.400Z,10.38
2018-12-12T14:15:55.129Z,7.05
2018-12-12T14:18:25.937Z,7.78
2018-12-12T14:20:56.742Z,10.00
2018-12-12T14:23:28.820Z,8.20
2018-12-12T14:25:59.796Z,7.40
2018-12-12T14:28:30.605Z,8.65
2018-12-12T14:31:01.726Z,9.63
2018-12-12T14:33:32.902Z,6.87
2018-12-12T14:36:03.794Z,6.53
2018-12-12T14:38:34.475Z,8.18
2018-12-12T14:41:05.541Z,7.40
2018-12-12T14:43:36.103Z,10.48
2018-12-12T14:46:06.641Z,8.23
2018-12-12T14:48:37.563Z,11.03
2018-12-12T14:51:08.122Z,7.87
2018-12-12T14:53:38.941Z,9.43
2018-12-12T14:56:09.797Z,10.70
2018-12-12T14:58:41.233Z,10.82
2018-12-12T15:01:12.048Z,11.15
2018-12-12T15:03:42.633Z,13.43
2018-12-12T15:06:13.408Z,18.73
2018-12-12T15:08:44.197Z,17.15
2018-12-12T15:11:14.938Z,16.27
2018-12-12T15:13:45.690Z,17.55
2018-12-12T15:16:16.629Z,17.85
2018-12-12T15:18:47.328Z,14.85
2018-12-12T15:21:18.099Z,14.35
2018-12-12T15:23:49.025Z,8.73
2018-12-12T15:26:19.672Z,10.85
2018-12-12T15:28:50.477Z,11.57
2018-12-12T15:31:21.461Z,11.50
2018-12-12T15:33:52.438Z,9.40
2018-12-12T15:36:23.195Z,6.75
2018-12-12T15:38:54.000Z,8.25
2018-12-12T15:41:24.700Z,8.45
2018-12-12T15:43:55.343Z,9.65
2018-12-12T15:46:26.024Z,12.43
2018-12-12T15:48:56.862Z,21.97
2018-12-12T15:51:27.645Z,26.57
2018-12-12T15:53:58.439Z,22.52
2018-12-12T15:56:29.185Z,18.27
2018-12-12T15:58:59.986Z,16.07
2018-12-12T16:01:30.858Z,17.35
2018-12-12T16:04:01.665Z,16.93
2018-12-12T16:06:32.515Z,10.95
2018-12-12T16:09:03.048Z,12.78
2018-12-12T16:11:35.763Z,11.15
2018-12-12T16:14:06.590Z,7.03
2018-12-12T16:16:37.242Z,8.95
2018-12-12T16:19:07.739Z,11.18
2018-12-12T16:21:38.616Z,10.63
2018-12-12T16:24:09.372Z,10.20
2018-12-12T16:26:40.273Z,9.43
2018-12-12T16:29:11.040Z,9.80
2018-12-12T16:31:42.050Z,9.28
2018-12-12T16:34:12.785Z,12.40
2018-12-12T16:36:43.536Z,12.40
2018-12-12T16:39:14.018Z,10.85
2018-12-12T16:41:44.978Z,10.23
2018-12-12T16:44:15.659Z,9.45
2018-12-12T16:46:51.468Z,10.95
2018-12-12T16:49:22.005Z,14.38
2018-12-12T16:51:52.935Z,11.70
2018-12-12T16:54:23.474Z,10.58
2018-12-12T16:56:54.008Z,12.10
2018-12-12T16:59:24.655Z,12.30
2018-12-12T17:01:55.521Z,11.65
2018-12-12T17:04:26.296Z,11.85
2018-12-12T17:06:56.796Z,10.25
2018-12-12T17:09:27.644Z,10.50
2018-12-12T17:11:58.417Z,9.50
2018-12-12T17:14:29.307Z,11.05
2018-12-12T17:17:00.148Z,10.65
2018-12-12T17:19:30.949Z,9.33
2018-12-12T17:22:01.809Z,13.83
2018-12-12T17:24:32.826Z,12.03
2018-12-12T17:27:03.463Z,16.55
2018-12-12T17:29:34.300Z,13.65
2018-12-12T17:32:05.195Z,22.70
2018-12-12T17:34:35.921Z,19.27
2018-12-12T17:37:06.613Z,15.15
2018-12-12T17:39:37.450Z,15.08
2018-12-12T17:42:08.123Z,17.00
2018-12-12T17:44:40.037Z,15.80
2018-12-12T17:47:10.886Z,16.15
2018-12-12T17:49:41.834Z,16.35
2018-12-12T17:52:12.717Z,19.20
2018-12-12T17:54:43.427Z,15.43
2018-12-12T17:57:13.943Z,14.47
2018-12-12T17:59:45.827Z,17.25
2018-12-12T18:02:16.740Z,71.05
2018-12-12T18:05:15.115Z,25.17
2018-12-12T18:07:42.436Z,40.15
2018-12-12T18:10:13.383Z,52.05
2018-12-12T18:12:44.175Z,60.30
2018-12-12T18:15:16.761Z,55.98
2018-12-12T18:17:49.574Z,53.20
2018-12-12T18:20:20.980Z,44.48
2018-12-12T18:22:51.623Z,45.55
2018-12-12T18:25:24.219Z,37.98
2018-12-12T18:27:54.958Z,37.20
2018-12-12T18:30:25.931Z,32.75
2018-12-12T18:32:58.468Z,28.73
2018-12-12T18:35:45.736Z,25.82
2018-12-12T18:38:16.578Z,27.15
2018-12-12T18:40:47.395Z,20.45
2018-12-12T18:43:19.947Z,19.92
2018-12-12T18:45:50.445Z,20.30
2018-12-12T18:48:21.350Z,19.00
2018-12-12T18:50:53.893Z,18.77
2018-12-12T18:53:26.498Z,15.95
2018-12-12T18:55:59.000Z,19.45
2018-12-12T18:58:29.841Z,16.30
2018-12-12T19:01:00.441Z,17.98
2018-12-12T19:03:31.096Z,16.17
2018-12-12T19:06:01.873Z,27.90
2018-12-12T19:08:32.406Z,143.20
2018-12-12T19:11:02.873Z,37.60
2018-12-12T19:13:33.405Z,46.02
2018-12-12T19:16:04.240Z,49.00
2018-12-12T19:18:35.000Z,48.35
2018-12-12T19:21:05.864Z,54.18
2018-12-12T19:23:37.130Z,45.65
2018-12-12T19:26:07.854Z,46.20
2018-12-12T19:28:38.710Z,57.10
2018-12-12T19:31:10.434Z,55.65
2018-12-12T19:33:41.182Z,45.95
2018-12-12T19:36:12.004Z,45.75
2018-12-12T19:38:42.955Z,39.73
2018-12-12T19:41:13.721Z,52.10
2018-12-12T19:43:44.499Z,49.65
2018-12-12T19:46:15.272Z,46.68
2018-12-12T19:48:45.847Z,43.73
2018-12-12T19:51:16.952Z,46.92
2018-12-12T19:53:49.222Z,46.18
2018-12-12T19:56:20.015Z,36.88
2018-12-12T19:58:51.924Z,42.27
2018-12-12T20:01:22.691Z,32.73
2018-12-12T20:03:53.544Z,31.70
2018-12-12T20:06:24.628Z,38.88
2018-12-12T20:08:55.169Z,47.75
2018-12-12T20:11:25.924Z,42.78
2018-12-12T20:13:56.814Z,38.00
2018-12-12T20:16:27.828Z,21.55
2018-12-12T20:18:58.608Z,22.25
2018-12-12T20:21:29.324Z,26.27
2018-12-12T20:23:59.886Z,23.12
2018-12-12T20:26:30.803Z,28.83
2018-12-12T20:29:01.672Z,51.25
2018-12-12T20:31:32.557Z,32.53
2018-12-12T20:34:03.400Z,34.65
2018-12-12T20:36:34.892Z,28.67
2018-12-12T20:39:07.923Z,30.35
2018-12-12T20:41:40.652Z,33.63
2018-12-12T20:44:11.779Z,34.65
2018-12-12T20:46:43.147Z,32.70
2018-12-12T20:49:14.115Z,36.35
2018-12-12T20:51:44.922Z,30.90
2018-12-12T20:54:15.823Z,30.68
2018-12-12T20:56:46.427Z,31.00
2018-12-12T20:59:16.994Z,27.37
2018-12-12T21:01:47.465Z,23.65
2018-12-12T21:04:18.111Z,23.65
2018-12-12T21:06:48.745Z,24.32
2018-12-12T21:09:19.398Z,23.60
2018-12-12T21:11:49.938Z,24.20
2018-12-12T21:14:20.468Z,24.32
2018-12-12T21:16:50.995Z,24.45
2018-12-12T21:19:21.520Z,24.45
2018-12-12T21:21:52.127Z,25.65
2018-12-12T21:24:23.238Z,26.95
2018-12-12T21:26:53.963Z,18.80
2018-12-12T21:29:24.529Z,20.75
2018-12-12T21:31:55.082Z,18.70
2018-12-12T21:34:25.643Z,16.70
2018-12-12T21:36:56.242Z,18.67
2018-12-12T21:39:26.792Z,15.55
2018-12-12T21:41:57.362Z,14.00
2018-12-12T21:44:27.938Z,17.80
2018-12-12T21:46:58.413Z,15.45
2018-12-12T21:49:29.241Z,15.93
2018-12-12T21:52:00.136Z,13.43
2018-12-12T21:54:30.651Z,15.23
2018-12-12T21:57:04.110Z,15.43
2018-12-12T21:59:35.251Z,14.10
2018-12-12T22:02:06.187Z,12.75
2018-12-12T22:04:37.421Z,13.53
2018-12-12T22:07:08.271Z,14.30
2018-12-12T22:09:39.343Z,15.32
2018-12-12T22:12:10.197Z,16.15
2018-12-12T22:14:40.923Z,16.87
2018-12-12T22:17:11.843Z,16.20
2018-12-12T22:19:42.637Z,17.57
2018-12-12T22:22:13.553Z,16.65
2018-12-12T22:24:44.133Z,16.73
2018-12-12T22:27:14.684Z,18.92
2018-12-12T22:29:45.247Z,22.98
2018-12-12T22:32:16.151Z,20.08
2018-12-12T22:34:46.809Z,21.85
2018-12-12T22:37:17.366Z,21.35
2018-12-12T22:39:48.227Z,19.12
2018-12-12T22:42:18.735Z,23.70
2018-12-12T22:44:49.554Z,22.00
2018-12-12T22:47:20.517Z,32.70
2018-12-12T22:49:52.320Z,34.83
2018-12-12T22:52:23.082Z,33.35
2018-12-12T22:54:53.731Z,33.90
2018-12-12T22:57:24.683Z,32.67
2018-12-12T22:59:55.345Z,32.75
2018-12-12T23:02:26.798Z,31.42
2018-12-12T23:04:57.618Z,32.15
2018-12-12T23:07:28.571Z,29.90
2018-12-12T23:09:59.546Z,34.63
2018-12-12T23:12:30.687Z,31.35
2018-12-12T23:15:01.550Z,38.70
2018-12-12T23:17:33.592Z,39.13
2018-12-12T23:20:04.805Z,35.20
2018-12-12T23:22:35.812Z,41.90
2018-12-12T23:25:06.790Z,40.38
2018-12-12T23:27:37.571Z,39.63
2018-12-12T23:30:09.112Z,34.80
2018-12-12T23:32:40.059Z,37.58
2018-12-12T23:35:11.050Z,35.35
2018-12-12T23:37:41.853Z,36.83
2018-12-12T23:40:12.822Z,43.50
2018-12-12T23:42:43.788Z,43.55
2018-12-12T23:45:14.807Z,38.73
2018-12-12T23:47:45.659Z,43.78
2018-12-12T23:50:16.255Z,34.27
2018-12-12T23:52:47.058Z,44.42
2018-12-12T23:55:17.905Z,49.25
2018-12-12T23:57:48.888Z,54.63
